createdAt,value
2018-05-27T00:00:18.838Z,0.00
2018-05-27T00:01:18.875Z,0.00
2018-05-27T00:02:18.909Z,0.00
2018-05-27T00:03:18.947Z,0.00
2018-05-27T00:04:18.983Z,0.00
2018-05-27T00:05:19.020Z,0.00
2018-05-27T00:06:19.058Z,0.00
2018-05-27T00:07:19.094Z,0.00
2018-05-27T00:08:19.132Z,0.00
2018-05-27T00:09:19.168Z,0.00
2018-05-27T00:10:19.205Z,0.00
2018-05-27T00:11:19.242Z,0.00
2018-05-27T00:12:19.277Z,0.00
2018-05-27T00:13:19.315Z,0.00
2018-05-27T00:14:19.351Z,0.00
2018-05-27T00:15:19.389Z,0.00
2018-05-27T00:16:19.425Z,0.00
2018-05-27T00:17:19.464Z,0.00
2018-05-27T00:18:19.500Z,0.00
2018-05-27T00:19:19.539Z,0.00
2018-05-27T00:20:19.571Z,0.00
2018-05-27T00:21:19.609Z,0.00
2018-05-27T00:22:19.645Z,0.00
2018-05-27T00:23:19.682Z,0.00
2018-05-27T00:24:19.720Z,0.00
2018-05-27T00:25:19.756Z,0.00
2018-05-27T00:26:19.793Z,0.00
2018-05-27T00:27:19.830Z,0.00
2018-05-27T00:28:19.866Z,0.00
2018-05-27T00:29:19.907Z,0.00
2018-05-27T00:30:19.944Z,0.00
2018-05-27T00:31:19.977Z,0.00
2018-05-27T00:32:20.012Z,0.00
2018-05-27T00:33:20.050Z,0.00
2018-05-27T00:34:20.085Z,0.00
2018-05-27T00:35:20.123Z,0.00
2018-05-27T00:36:20.159Z,0.00
2018-05-27T00:37:20.196Z,0.00
2018-05-27T00:38:20.235Z,0.00
2018-05-27T00:39:20.273Z,0.00
2018-05-27T00:40:20.305Z,0.00
2018-05-27T00:41:20.343Z,0.00
2018-05-27T00:42:20.379Z,0.00
2018-05-27T00:43:20.417Z,0.00
2018-05-27T00:44:20.451Z,0.00
2018-05-27T00:45:20.489Z,0.00
2018-05-27T00:46:20.525Z,0.00
2018-05-27T00:47:20.562Z,0.00
2018-05-27T00:48:20.597Z,0.00
2018-05-27T00:49:20.635Z,0.00
2018-05-27T00:50:20.671Z,0.00
2018-05-27T00:51:20.707Z,0.00
2018-05-27T00:52:20.745Z,0.00
2018-05-27T00:53:20.783Z,0.00
2018-05-27T00:54:20.817Z,0.00
2018-05-27T00:55:20.855Z,0.00
2018-05-27T00:56:20.890Z,0.00
2018-05-27T00:57:20.928Z,0.00
2018-05-27T00:58:20.964Z,0.00
2018-05-27T00:59:21.000Z,0.00
2018-05-27T01:00:21.037Z,0.00
2018-05-27T01:01:21.073Z,0.00
2018-05-27T01:02:21.112Z,0.00
2018-05-27T01:03:21.147Z,0.00
2018-05-27T01:04:21.183Z,0.00
2018-05-27T01:05:21.222Z,0.00
2018-05-27T01:06:21.256Z,0.00
2018-05-27T01:07:21.293Z,0.00
2018-05-27T01:08:21.329Z,0.00
2018-05-27T01:09:21.365Z,0.00
2018-05-27T01:10:21.403Z,0.00
2018-05-27T01:11:21.442Z,0.00
2018-05-27T01:12:21.475Z,0.00
2018-05-27T01:13:21.512Z,0.00
2018-05-27T01:14:21.549Z,0.00
2018-05-27T01:15:21.587Z,0.00
2018-05-27T01:16:21.622Z,0.00
2018-05-27T01:17:21.657Z,0.00
2018-05-27T01:18:21.694Z,0.00
2018-05-27T01:19:21.731Z,0.00
2018-05-27T01:20:21.767Z,0.00
2018-05-27T01:21:21.802Z,0.00
2018-05-27T01:22:21.840Z,0.00
2018-05-27T01:23:21.877Z,0.00
2018-05-27T01:24:21.912Z,0.00
2018-05-27T01:25:21.954Z,0.00
2018-05-27T01:26:21.986Z,0.00
2018-05-27T01:27:22.023Z,0.00
2018-05-27T01:28:22.058Z,0.00
2018-05-27T01:29:22.095Z,0.00
2018-05-27T01:30:22.133Z,0.00
2018-05-27T01:31:22.169Z,0.00
2018-05-27T01:32:22.206Z,0.00
2018-05-27T01:33:22.243Z,0.00
2018-05-27T01:34:22.283Z,0.00
2018-05-27T01:35:22.316Z,0.00
2018-05-27T01:36:22.351Z,0.00
2018-05-27T01:37:22.389Z,0.00
2018-05-27T01:38:22.425Z,0.00
2018-05-27T01:39:22.463Z,0.00
2018-05-27T01:40:22.498Z,0.00
2018-05-27T01:41:22.535Z,0.00
2018-05-27T01:42:22.572Z,0.00
2018-05-27T01:43:22.612Z,0.00
2018-05-27T01:44:22.643Z,0.00
2018-05-27T01:45:22.684Z,0.00
2018-05-27T01:46:22.722Z,0.00
2018-05-27T01:47:22.754Z,0.00
2018-05-27T01:48:22.791Z,0.00
2018-05-27T01:49:22.827Z,0.00
2018-05-27T01:50:22.867Z,0.00
2018-05-27T01:51:22.902Z,0.00
2018-05-27T01:52:22.938Z,0.00
2018-05-27T01:53:22.975Z,0.00
2018-05-27T01:54:23.012Z,0.00
2018-05-27T01:55:23.050Z,0.00
2018-05-27T01:56:23.084Z,0.00
2018-05-27T01:57:23.120Z,0.00
2018-05-27T01:58:23.162Z,0.00
2018-05-27T01:59:23.193Z,0.00
2018-05-27T02:00:23.231Z,0.00
2018-05-27T02:01:23.268Z,0.00
2018-05-27T02:02:23.303Z,0.00
2018-05-27T02:03:23.345Z,0.00
2018-05-27T02:04:23.381Z,0.00
2018-05-27T02:05:23.418Z,0.00
2018-05-27T02:06:23.449Z,0.00
2018-05-27T02:07:23.487Z,0.00
2018-05-27T02:08:23.523Z,0.00
2018-05-27T02:09:23.561Z,0.00
2018-05-27T02:10:23.596Z,0.00
2018-05-27T02:11:23.633Z,0.00
2018-05-27T02:12:23.668Z,0.00
2018-05-27T02:13:23.705Z,0.00
2018-05-27T02:14:23.742Z,0.00
2018-05-27T02:15:23.778Z,0.00
2018-05-27T02:16:23.815Z,0.00
2018-05-27T02:17:23.850Z,0.00
2018-05-27T02:18:23.885Z,0.00
2018-05-27T02:19:23.922Z,0.00
2018-05-27T02:20:23.958Z,0.00
2018-05-27T02:21:24.000Z,0.00
2018-05-27T02:22:24.032Z,0.00
2018-05-27T02:23:24.068Z,0.00
2018-05-27T02:24:24.113Z,0.00
2018-05-27T02:25:24.139Z,0.00
2018-05-27T02:26:24.177Z,0.00
2018-05-27T02:27:24.820Z,0.00
2018-05-27T02:28:24.258Z,0.00
2018-05-27T02:29:24.285Z,0.00
2018-05-27T02:30:24.326Z,0.00
2018-05-27T02:31:24.359Z,0.00
2018-05-27T02:32:24.394Z,0.00
2018-05-27T02:33:24.442Z,0.00
2018-05-27T02:34:24.475Z,0.00
2018-05-27T02:35:24.504Z,0.00
2018-05-27T02:36:24.542Z,0.00
2018-05-27T02:37:24.579Z,0.00
2018-05-27T02:38:24.616Z,0.00
2018-05-27T02:39:24.657Z,0.00
2018-05-27T02:40:24.687Z,0.00
2018-05-27T02:41:24.720Z,0.00
2018-05-27T02:42:24.760Z,0.00
2018-05-27T02:43:24.808Z,0.00
2018-05-27T02:44:24.827Z,0.00
2018-05-27T02:45:24.862Z,0.00
2018-05-27T02:46:24.899Z,0.00
2018-05-27T02:47:24.935Z,0.00
2018-05-27T02:48:24.970Z,0.00
2018-05-27T02:49:25.009Z,0.00
2018-05-27T02:50:25.044Z,0.00
2018-05-27T02:51:25.078Z,0.00
2018-05-27T02:52:25.113Z,0.00
2018-05-27T02:53:25.150Z,0.00
2018-05-27T02:54:25.224Z,0.00
2018-05-27T02:55:25.223Z,0.00
2018-05-27T02:56:25.259Z,0.00
2018-05-27T02:57:25.294Z,0.00
2018-05-27T02:58:25.329Z,0.00
2018-05-27T02:59:25.366Z,0.00
2018-05-27T03:00:25.401Z,0.00
2018-05-27T03:01:25.444Z,0.00
2018-05-27T03:02:25.474Z,4.00
2018-05-27T03:03:25.512Z,4.00
2018-05-27T03:04:25.545Z,0.00
2018-05-27T03:05:25.581Z,4.00
2018-05-27T03:06:25.617Z,4.00
2018-05-27T03:07:25.653Z,8.00
2018-05-27T03:08:25.688Z,4.00
2018-05-27T03:09:25.724Z,8.00
2018-05-27T03:10:25.760Z,8.00
2018-05-27T03:11:25.795Z,8.00
2018-05-27T03:12:25.832Z,8.00
2018-05-27T03:13:25.867Z,8.00
2018-05-27T03:14:25.902Z,16.00
2018-05-27T03:15:25.939Z,16.00
2018-05-27T03:16:25.974Z,20.00
2018-05-27T03:17:26.010Z,20.00
2018-05-27T03:18:26.046Z,24.00
2018-05-27T03:19:26.082Z,28.00
2018-05-27T03:20:26.116Z,32.00
2018-05-27T03:21:26.153Z,36.00
2018-05-27T03:22:26.188Z,44.00
2018-05-27T03:23:26.226Z,48.00
2018-05-27T03:24:26.259Z,56.00
2018-05-27T03:25:26.294Z,60.00
2018-05-27T03:26:26.331Z,72.00
2018-05-27T03:27:26.367Z,76.00
2018-05-27T03:28:26.402Z,88.00
2018-05-27T03:29:26.438Z,96.00
2018-05-27T03:30:26.474Z,108.00
2018-05-27T03:31:26.518Z,116.00
2018-05-27T03:32:26.543Z,124.00
2018-05-27T03:33:26.580Z,136.00
2018-05-27T03:34:26.615Z,148.00
2018-05-27T03:35:26.652Z,160.00
2018-05-27T03:36:26.688Z,176.00
2018-05-27T03:37:26.721Z,184.00
2018-05-27T03:38:26.758Z,200.00
2018-05-27T03:39:26.794Z,216.00
2018-05-27T03:40:26.829Z,232.00
2018-05-27T03:41:26.868Z,252.00
2018-05-27T03:42:26.900Z,268.00
2018-05-27T03:43:26.937Z,292.00
2018-05-27T03:44:26.974Z,312.00
2018-05-27T03:45:27.008Z,332.00
2018-05-27T03:46:27.043Z,360.00
2018-05-27T03:47:27.080Z,380.00
2018-05-27T03:48:27.114Z,400.00
2018-05-27T03:49:27.149Z,428.00
2018-05-27T03:50:27.192Z,456.00
2018-05-27T03:51:27.222Z,484.00
2018-05-27T03:52:27.257Z,512.00
2018-05-27T03:53:27.291Z,544.00
2018-05-27T03:54:27.331Z,580.00
2018-05-27T03:55:27.363Z,616.00
2018-05-27T03:56:27.399Z,656.00
2018-05-27T03:57:27.435Z,696.00
2018-05-27T03:58:27.470Z,736.00
2018-05-27T03:59:27.505Z,776.00
2018-05-27T04:00:27.541Z,820.00
2018-05-27T04:01:27.578Z,860.00
2018-05-27T04:02:27.612Z,908.00
2018-05-27T04:03:27.648Z,956.00
2018-05-27T04:04:27.682Z,1008.00
2018-05-27T04:05:27.719Z,1060.00
2018-05-27T04:06:27.754Z,1112.00
2018-05-27T04:07:27.790Z,1176.00
2018-05-27T04:08:27.826Z,1236.00
2018-05-27T04:09:27.861Z,1300.00
2018-05-27T04:10:27.895Z,1368.00
2018-05-27T04:11:27.935Z,1436.00
2018-05-27T04:12:27.967Z,1500.00
2018-05-27T04:13:28.003Z,1568.00
2018-05-27T04:14:28.039Z,1636.00
2018-05-27T04:15:28.074Z,1704.00
2018-05-27T04:16:28.112Z,1780.00
2018-05-27T04:17:28.145Z,1848.00
2018-05-27T04:18:28.180Z,1928.00
2018-05-27T04:19:28.217Z,2000.00
2018-05-27T04:20:28.251Z,2064.00
2018-05-27T04:21:28.312Z,2136.00
2018-05-27T04:22:28.326Z,2208.00
2018-05-27T04:23:28.360Z,2288.00
2018-05-27T04:24:28.394Z,2372.00
2018-05-27T04:25:28.430Z,2456.00
2018-05-27T04:26:28.466Z,2540.00
2018-05-27T04:27:28.501Z,2640.00
2018-05-27T04:28:28.583Z,2728.00
2018-05-27T04:29:28.573Z,2812.00
2018-05-27T04:30:28.608Z,2900.00
2018-05-27T04:31:28.643Z,2988.00
2018-05-27T04:32:28.678Z,3076.00
2018-05-27T04:33:28.721Z,3172.00
2018-05-27T04:34:28.751Z,3260.00
2018-05-27T04:35:28.786Z,3352.00
2018-05-27T04:36:28.828Z,3436.00
2018-05-27T04:37:28.858Z,3512.00
2018-05-27T04:38:28.893Z,3588.00
2018-05-27T04:39:28.930Z,3652.00
2018-05-27T04:40:28.965Z,3724.00
2018-05-27T04:41:29.000Z,3792.00
2018-05-27T04:42:29.037Z,3872.00
2018-05-27T04:43:29.072Z,3972.00
2018-05-27T04:44:29.108Z,4048.00
2018-05-27T04:45:29.144Z,4124.00
2018-05-27T04:46:29.181Z,4188.00
2018-05-27T04:47:29.217Z,4260.00
2018-05-27T04:48:29.255Z,4348.00
2018-05-27T04:49:29.288Z,4428.00
2018-05-27T04:50:29.324Z,4496.00
2018-05-27T04:51:29.360Z,4580.00
2018-05-27T04:52:29.397Z,4640.00
2018-05-27T04:53:29.432Z,4712.00
2018-05-27T04:54:29.468Z,4784.00
2018-05-27T04:55:29.505Z,4860.00
2018-05-27T04:56:29.542Z,4932.00
2018-05-27T04:57:29.578Z,5012.00
2018-05-27T04:58:29.612Z,5072.00
2018-05-27T04:59:29.649Z,5148.00
2018-05-27T05:00:29.684Z,5300.00
2018-05-27T05:01:29.721Z,5432.00
2018-05-27T05:02:29.759Z,5512.00
2018-05-27T05:03:29.795Z,5592.00
2018-05-27T05:04:29.845Z,5672.00
2018-05-27T05:05:29.867Z,5732.00
2018-05-27T05:06:29.904Z,5732.00
2018-05-27T05:07:29.941Z,5760.00
2018-05-27T05:08:29.976Z,5800.00
2018-05-27T05:09:30.031Z,5872.00
2018-05-27T05:10:30.050Z,5928.00
2018-05-27T05:11:30.087Z,5964.00
2018-05-27T05:12:30.120Z,5996.00
2018-05-27T05:13:30.159Z,6040.00
2018-05-27T05:14:30.195Z,6096.00
2018-05-27T05:15:30.232Z,6160.00
2018-05-27T05:16:30.268Z,6180.00
2018-05-27T05:17:30.306Z,6220.00
2018-05-27T05:18:30.342Z,6268.00
2018-05-27T05:19:30.380Z,6324.00
2018-05-27T05:20:30.416Z,6368.00
2018-05-27T05:21:30.909Z,6424.00
2018-05-27T05:22:30.493Z,6516.00
2018-05-27T05:23:30.526Z,6612.00
2018-05-27T05:24:30.563Z,6696.00
2018-05-27T05:25:30.598Z,6776.00
2018-05-27T05:26:30.636Z,6876.00
2018-05-27T05:27:30.678Z,6976.00
2018-05-27T05:28:30.710Z,7096.00
2018-05-27T05:29:30.746Z,7216.00
2018-05-27T05:30:30.784Z,7312.00
2018-05-27T05:31:30.821Z,7412.00
2018-05-27T05:32:30.857Z,7516.00
2018-05-27T05:33:30.894Z,7616.00
2018-05-27T05:34:30.931Z,7708.00
2018-05-27T05:35:30.970Z,7796.00
2018-05-27T05:36:31.010Z,7884.00
2018-05-27T05:37:31.044Z,7996.00
2018-05-27T05:38:31.082Z,8092.00
2018-05-27T05:39:31.119Z,8184.00
2018-05-27T05:40:31.156Z,8292.00
2018-05-27T05:41:31.193Z,8360.00
2018-05-27T05:42:31.231Z,8396.00
2018-05-27T05:43:31.272Z,8580.00
2018-05-27T05:44:31.306Z,8724.00
2018-05-27T05:45:31.344Z,8872.00
2018-05-27T05:46:31.382Z,9020.00
2018-05-27T05:47:31.421Z,9192.00
2018-05-27T05:48:31.457Z,9400.00
2018-05-27T05:49:31.495Z,9584.00
2018-05-27T05:50:31.534Z,9728.00
2018-05-27T05:51:31.572Z,9812.00
2018-05-27T05:52:31.610Z,9848.00
2018-05-27T05:53:31.652Z,9788.00
2018-05-27T05:54:31.691Z,9696.00
2018-05-27T05:55:31.723Z,9576.00
2018-05-27T05:56:31.763Z,9480.00
2018-05-27T05:57:31.808Z,9388.00
2018-05-27T05:58:31.840Z,9308.00
2018-05-27T05:59:31.878Z,9196.00
2018-05-27T06:00:31.917Z,9044.00
2018-05-27T06:01:31.955Z,8820.00
2018-05-27T06:02:31.995Z,8576.00
2018-05-27T06:03:32.033Z,8292.00
2018-05-27T06:04:32.071Z,7828.00
2018-05-27T06:05:32.109Z,7496.00
2018-05-27T06:06:32.148Z,7148.00
2018-05-27T06:07:32.186Z,6852.00
2018-05-27T06:08:32.226Z,6636.00
2018-05-27T06:09:32.265Z,6428.00
2018-05-27T06:10:32.305Z,6216.00
2018-05-27T06:11:32.347Z,6056.00
2018-05-27T06:12:32.382Z,5932.00
2018-05-27T06:13:32.473Z,5828.00
2018-05-27T06:14:32.460Z,5700.00
2018-05-27T06:15:32.501Z,5572.00
2018-05-27T06:16:32.538Z,5472.00
2018-05-27T06:17:32.579Z,5388.00
2018-05-27T06:18:32.617Z,5340.00
2018-05-27T06:19:32.666Z,5332.00
2018-05-27T06:20:32.695Z,5348.00
2018-05-27T06:21:32.735Z,5372.00
2018-05-27T06:22:32.774Z,5420.00
2018-05-27T06:23:32.813Z,5496.00
2018-05-27T06:24:32.851Z,5600.00
2018-05-27T06:25:32.891Z,5736.00
2018-05-27T06:26:32.931Z,5864.00
2018-05-27T06:27:32.972Z,5980.00
2018-05-27T06:28:33.008Z,6080.00
2018-05-27T06:29:33.048Z,6192.00
2018-05-27T06:30:33.088Z,6320.00
2018-05-27T06:31:33.126Z,6448.00
2018-05-27T06:32:33.170Z,6604.00
2018-05-27T06:33:33.203Z,6780.00
2018-05-27T06:34:33.243Z,6988.00
2018-05-27T06:35:33.283Z,7100.00
2018-05-27T06:36:33.321Z,7244.00
2018-05-27T06:37:33.361Z,7408.00
2018-05-27T06:38:33.399Z,7596.00
2018-05-27T06:39:33.439Z,7772.00
2018-05-27T06:40:33.477Z,7948.00
2018-05-27T06:41:33.515Z,8080.00
2018-05-27T06:42:33.555Z,8284.00
2018-05-27T06:43:33.595Z,8468.00
2018-05-27T06:44:33.632Z,8576.00
2018-05-27T06:45:33.672Z,8636.00
2018-05-27T06:46:33.713Z,8728.00
2018-05-27T06:47:33.751Z,8820.00
2018-05-27T06:48:33.789Z,8832.00
2018-05-27T06:49:33.833Z,8896.00
2018-05-27T06:50:33.871Z,9056.00
2018-05-27T06:51:33.909Z,9084.00
2018-05-27T06:52:33.947Z,9236.00
2018-05-27T06:53:33.991Z,9344.00
2018-05-27T06:54:34.026Z,9420.00
2018-05-27T06:55:34.072Z,9360.00
2018-05-27T06:56:34.109Z,9484.00
2018-05-27T06:57:34.146Z,9640.00
2018-05-27T06:58:34.184Z,9672.00
2018-05-27T06:59:34.226Z,9848.00
2018-05-27T07:00:34.265Z,10072.00
2018-05-27T07:01:34.305Z,10304.00
2018-05-27T07:02:34.345Z,10540.00
2018-05-27T07:03:34.429Z,10632.00
2018-05-27T07:04:34.476Z,10900.00
2018-05-27T07:05:34.466Z,11064.00
2018-05-27T07:06:34.507Z,11376.00
2018-05-27T07:07:34.547Z,11540.00
2018-05-27T07:08:34.587Z,11620.00
2018-05-27T07:09:34.626Z,11832.00
2018-05-27T07:10:34.667Z,12108.00
2018-05-27T07:11:34.755Z,12384.00
2018-05-27T07:12:34.746Z,12672.00
2018-05-27T07:13:34.788Z,13020.00
2018-05-27T07:14:34.828Z,13320.00
2018-05-27T07:15:34.871Z,13592.00
2018-05-27T07:16:34.909Z,13660.00
2018-05-27T07:17:34.948Z,13656.00
2018-05-27T07:18:34.990Z,13892.00
2018-05-27T07:19:35.033Z,13988.00
2018-05-27T07:20:35.070Z,14076.00
2018-05-27T07:21:35.112Z,14236.00
2018-05-27T07:22:35.153Z,14440.00
2018-05-27T07:23:35.195Z,14636.00
2018-05-27T07:24:35.235Z,14876.00
2018-05-27T07:25:35.277Z,15088.00
2018-05-27T07:26:35.318Z,15272.00
2018-05-27T07:27:35.359Z,15452.00
2018-05-27T07:28:35.402Z,15588.00
2018-05-27T07:29:35.440Z,15616.00
2018-05-27T07:30:35.483Z,15620.00
2018-05-27T07:31:35.524Z,15604.00
2018-05-27T07:32:36.189Z,15504.00
2018-05-27T07:34:35.696Z,14860.00
2018-05-27T07:35:35.706Z,14348.00
2018-05-27T07:36:36.362Z,13824.00
2018-05-27T07:38:36.017Z,13004.00
2018-05-27T07:39:35.875Z,12744.00
2018-05-27T07:41:36.469Z,12484.00
2018-05-27T07:43:36.023Z,12292.00
2018-05-27T07:45:36.105Z,12108.00
2018-05-27T07:46:36.209Z,12144.00
2018-05-27T07:47:36.209Z,12320.00
2018-05-27T07:48:36.230Z,12784.00
2018-05-27T07:49:36.272Z,13344.00
2018-05-27T07:50:36.331Z,13248.00
2018-05-27T07:51:36.378Z,13828.00
2018-05-27T07:52:36.775Z,14188.00
2018-05-27T07:53:36.438Z,14044.00
2018-05-27T07:54:36.500Z,13812.00
2018-05-27T07:55:36.521Z,13672.00
2018-05-27T07:56:36.563Z,13560.00
2018-05-27T07:57:36.605Z,13152.00
2018-05-27T07:58:36.658Z,13096.00
2018-05-27T07:59:36.689Z,13044.00
2018-05-27T08:00:36.729Z,13028.00
2018-05-27T08:01:36.772Z,12936.00
2018-05-27T08:02:36.818Z,12116.00
2018-05-27T08:03:36.856Z,12184.00
2018-05-27T08:04:36.897Z,12492.00
2018-05-27T08:05:36.978Z,13432.00
2018-05-27T08:06:37.056Z,14216.00
2018-05-27T08:07:37.025Z,14508.00
2018-05-27T08:08:37.066Z,14588.00
2018-05-27T08:09:37.109Z,14656.00
2018-05-27T08:10:37.150Z,14552.00
2018-05-27T08:11:37.192Z,14840.00
2018-05-27T08:12:37.234Z,15132.00
2018-05-27T08:13:37.293Z,15408.00
2018-05-27T08:14:37.319Z,15120.00
2018-05-27T08:15:37.360Z,14452.00
2018-05-27T08:16:37.404Z,14500.00
2018-05-27T08:17:37.446Z,14576.00
2018-05-27T08:18:37.489Z,14040.00
2018-05-27T08:19:37.531Z,13616.00
2018-05-27T08:20:37.572Z,13008.00
2018-05-27T08:21:37.615Z,12832.00
2018-05-27T08:22:37.678Z,12732.00
2018-05-27T08:23:37.702Z,13020.00
2018-05-27T08:24:37.742Z,13044.00
2018-05-27T08:25:37.783Z,13180.00
2018-05-27T08:26:37.827Z,12584.00
2018-05-27T08:27:37.869Z,12936.00
2018-05-27T08:28:37.912Z,13100.00
2018-05-27T08:29:37.954Z,12640.00
2018-05-27T08:30:37.997Z,12372.00
2018-05-27T08:31:38.265Z,12196.00
2018-05-27T08:32:38.081Z,11308.00
2018-05-27T08:33:38.124Z,11680.00
2018-05-27T08:34:38.167Z,12996.00
2018-05-27T08:35:38.212Z,13572.00
2018-05-27T08:36:38.453Z,13872.00
2018-05-27T08:37:38.298Z,14372.00
2018-05-27T08:38:38.338Z,13988.00
2018-05-27T08:39:38.406Z,14524.00
2018-05-27T08:40:38.423Z,14196.00
2018-05-27T08:41:38.470Z,13924.00
2018-05-27T08:42:38.509Z,13600.00
2018-05-27T08:43:38.551Z,13200.00
2018-05-27T08:44:38.594Z,12592.00
2018-05-27T08:45:38.838Z,12580.00
2018-05-27T08:46:38.680Z,12696.00
2018-05-27T08:47:38.723Z,12724.00
2018-05-27T08:49:38.809Z,12848.00
2018-05-27T08:50:38.852Z,12556.00
2018-05-27T08:51:38.897Z,11536.00
2018-05-27T08:52:38.937Z,13120.00
2018-05-27T08:53:38.981Z,13612.00
2018-05-27T08:54:39.028Z,13912.00
2018-05-27T08:55:39.071Z,13252.00
2018-05-27T08:56:39.110Z,13312.00
2018-05-27T08:57:39.154Z,12236.00
2018-05-27T08:58:39.222Z,12540.00
2018-05-27T08:59:39.241Z,12960.00
2018-05-27T09:00:39.284Z,12876.00
2018-05-27T09:01:39.328Z,14380.00
2018-05-27T09:02:39.370Z,14552.00
2018-05-27T09:03:39.460Z,14992.00
2018-05-27T09:04:39.457Z,15304.00
2018-05-27T09:05:39.501Z,15516.00
2018-05-27T09:06:39.544Z,15700.00
2018-05-27T09:07:39.589Z,15828.00
2018-05-27T09:08:39.632Z,15964.00
2018-05-27T09:09:39.675Z,16120.00
2018-05-27T09:10:39.719Z,16296.00
2018-05-27T09:11:39.764Z,16576.00
2018-05-27T09:12:39.808Z,16704.00
2018-05-27T09:13:39.850Z,16896.00
2018-05-27T09:14:39.896Z,16928.00
2018-05-27T09:15:39.941Z,17344.00
2018-05-27T09:16:39.984Z,16672.00
2018-05-27T09:17:40.030Z,15920.00
2018-05-27T09:18:40.072Z,14980.00
2018-05-27T09:19:40.117Z,14592.00
2018-05-27T09:20:40.163Z,15248.00
2018-05-27T09:21:40.207Z,17312.00
2018-05-27T09:22:40.255Z,16592.00
2018-05-27T09:23:40.296Z,15968.00
2018-05-27T09:24:40.340Z,18400.00
2018-05-27T09:25:40.383Z,19168.00
2018-05-27T09:26:40.429Z,19264.00
2018-05-27T09:27:40.472Z,19328.00
2018-05-27T09:28:40.517Z,18816.00
2018-05-27T09:29:40.562Z,18016.00
2018-05-27T09:30:40.608Z,19808.00
2018-05-27T09:31:40.652Z,18816.00
2018-05-27T09:32:40.696Z,20000.00
2018-05-27T09:33:40.741Z,19776.00
2018-05-27T09:34:40.788Z,22336.00
2018-05-27T09:35:40.831Z,21216.00
2018-05-27T09:36:40.876Z,22560.00
2018-05-27T09:37:40.921Z,22752.00
2018-05-27T09:38:40.966Z,22784.00
2018-05-27T09:39:41.011Z,21792.00
2018-05-27T09:40:41.056Z,22176.00
2018-05-27T09:41:41.101Z,21440.00
2018-05-27T09:42:41.147Z,21888.00
2018-05-27T09:43:41.194Z,21824.00
2018-05-27T09:44:41.236Z,22592.00
2018-05-27T09:45:41.282Z,22144.00
2018-05-27T09:46:41.327Z,21920.00
2018-05-27T09:47:41.373Z,23232.00
2018-05-27T09:48:41.418Z,23776.00
2018-05-27T09:49:41.464Z,21024.00
2018-05-27T09:50:41.509Z,20896.00
2018-05-27T09:51:41.556Z,20992.00
2018-05-27T09:52:41.600Z,22112.00
2018-05-27T09:53:41.645Z,20672.00
2018-05-27T09:54:41.690Z,23456.00
2018-05-27T09:55:41.737Z,22624.00
2018-05-27T09:56:41.782Z,23424.00
2018-05-27T09:57:41.828Z,23040.00
2018-05-27T09:58:41.872Z,22368.00
2018-05-27T09:59:41.919Z,21632.00
2018-05-27T10:00:41.965Z,20704.00
2018-05-27T10:01:42.011Z,19040.00
2018-05-27T10:02:42.054Z,19776.00
2018-05-27T10:03:42.104Z,19456.00
2018-05-27T10:04:42.145Z,19104.00
2018-05-27T10:05:42.192Z,18848.00
2018-05-27T10:06:42.238Z,18720.00
2018-05-27T10:07:42.284Z,18816.00
2018-05-27T10:08:42.329Z,18784.00
2018-05-27T10:09:42.375Z,18464.00
2018-05-27T10:10:42.421Z,18560.00
2018-05-27T10:11:42.501Z,18048.00
2018-05-27T10:12:42.527Z,18176.00
2018-05-27T10:13:42.579Z,18144.00
2018-05-27T10:14:42.605Z,18176.00
2018-05-27T10:15:42.649Z,18240.00
2018-05-27T10:16:42.695Z,18272.00
2018-05-27T10:17:42.741Z,18304.00
2018-05-27T10:18:42.787Z,18336.00
2018-05-27T10:19:42.832Z,18368.00
2018-05-27T10:20:42.882Z,18496.00
2018-05-27T10:21:42.923Z,18624.00
2018-05-27T10:22:42.970Z,18720.00
2018-05-27T10:23:43.017Z,18880.00
2018-05-27T10:24:43.061Z,19104.00
2018-05-27T10:25:43.107Z,19488.00
2018-05-27T10:26:43.152Z,20480.00
2018-05-27T10:27:43.199Z,29056.00
2018-05-27T10:28:43.243Z,50144.00
2018-05-27T10:29:43.289Z,76352.00
2018-05-27T10:30:43.335Z,95040.00
2018-05-27T10:31:43.386Z,101216.00
2018-05-27T10:32:43.469Z,104768.00
2018-05-27T10:33:43.480Z,100896.00
2018-05-27T10:34:43.524Z,98144.00
2018-05-27T10:35:43.572Z,102752.00
2018-05-27T10:36:43.618Z,105024.00
2018-05-27T10:37:43.667Z,102944.00
2018-05-27T10:38:43.716Z,101376.00
2018-05-27T10:39:43.765Z,100224.00
2018-05-27T10:40:43.816Z,102624.00
2018-05-27T10:41:43.868Z,101504.00
2018-05-27T10:42:43.918Z,99584.00
2018-05-27T10:43:43.969Z,103232.00
2018-05-27T10:44:44.019Z,105184.00
2018-05-27T10:45:44.070Z,106880.00
2018-05-27T10:46:44.123Z,110912.00
2018-05-27T10:47:44.176Z,109088.00
2018-05-27T10:48:44.228Z,105376.00
2018-05-27T10:49:44.283Z,113632.00
2018-05-27T10:50:44.334Z,116896.00
2018-05-27T10:51:44.388Z,110784.00
2018-05-27T10:52:44.441Z,108672.00
2018-05-27T10:53:44.498Z,110048.00
2018-05-27T10:54:44.549Z,109312.00
2018-05-27T10:55:44.603Z,109792.00
2018-05-27T10:56:44.657Z,107424.00
2018-05-27T10:57:44.712Z,101632.00
2018-05-27T10:58:44.766Z,100544.00
2018-05-27T10:59:44.822Z,104256.00
2018-05-27T11:00:44.877Z,101600.00
2018-05-27T11:01:44.932Z,101888.00
2018-05-27T11:02:44.988Z,109824.00
2018-05-27T11:03:45.047Z,107680.00
2018-05-27T11:04:45.098Z,105600.00
2018-05-27T11:05:45.204Z,102176.00
2018-05-27T11:06:45.209Z,91968.00
2018-05-27T11:07:45.267Z,96640.00
2018-05-27T11:08:45.322Z,103232.00
2018-05-27T11:09:45.379Z,102304.00
2018-05-27T11:10:45.438Z,100576.00
2018-05-27T11:13:45.831Z,107104.00
2018-05-27T11:15:45.724Z,109312.00
2018-05-27T11:16:45.799Z,105024.00
2018-05-27T11:17:45.834Z,110176.00
2018-05-27T11:21:46.063Z,113184.00
2018-05-27T11:22:46.121Z,118016.00
2018-05-27T11:23:46.180Z,120288.00
2018-05-27T11:25:46.295Z,119392.00
2018-05-27T11:26:46.354Z,122976.00
2018-05-27T11:27:46.417Z,112608.00
2018-05-27T11:29:46.528Z,110464.00
2018-05-27T11:30:46.589Z,122400.00
2018-05-27T11:31:46.646Z,124224.00
2018-05-27T11:32:46.705Z,122016.00
2018-05-27T11:33:46.768Z,126144.00
2018-05-27T11:34:46.821Z,127872.00
2018-05-27T11:35:46.885Z,117152.00
2018-05-27T11:36:46.939Z,110752.00
2018-05-27T11:37:46.999Z,110784.00
2018-05-27T11:38:47.058Z,113344.00
2018-05-27T11:39:47.117Z,117600.00
2018-05-27T11:40:47.175Z,110336.00
2018-05-27T11:41:47.234Z,112896.00
2018-05-27T11:42:47.293Z,121216.00
2018-05-27T11:43:47.352Z,125408.00
2018-05-27T11:44:47.409Z,127008.00
2018-05-27T11:45:47.468Z,116736.00
2018-05-27T11:46:47.527Z,124096.00
2018-05-27T11:47:47.585Z,126688.00
2018-05-27T11:48:47.644Z,115040.00
2018-05-27T11:49:47.703Z,108320.00
2018-05-27T11:50:47.770Z,99104.00
2018-05-27T11:51:47.821Z,102816.00
2018-05-27T11:52:47.877Z,95040.00
2018-05-27T11:53:47.937Z,96800.00
2018-05-27T11:54:47.996Z,95680.00
2018-05-27T11:55:48.055Z,95456.00
2018-05-27T11:56:48.112Z,102848.00
2018-05-27T11:57:48.169Z,101056.00
2018-05-27T11:58:48.232Z,98336.00
2018-05-27T11:59:48.288Z,93280.00
2018-05-27T12:00:48.344Z,94752.00
2018-05-27T12:01:48.430Z,96128.00
2018-05-27T12:02:48.461Z,86688.00
2018-05-27T12:03:48.517Z,77920.00
2018-05-27T12:04:48.574Z,85824.00
2018-05-27T12:05:48.633Z,84608.00
2018-05-27T12:06:48.691Z,82816.00
2018-05-27T12:07:48.749Z,77824.00
2018-05-27T12:08:48.802Z,76544.00
2018-05-27T12:09:48.860Z,74816.00
2018-05-27T12:10:48.916Z,77664.00
2018-05-27T12:11:49.022Z,79360.00
2018-05-27T12:12:49.029Z,74496.00
2018-05-27T12:13:49.086Z,71040.00
2018-05-27T12:14:49.142Z,72320.00
2018-05-27T12:15:49.200Z,73952.00
2018-05-27T12:16:49.254Z,73568.00
2018-05-27T12:17:49.311Z,72320.00
2018-05-27T12:18:49.365Z,71808.00
2018-05-27T12:19:49.422Z,61952.00
2018-05-27T12:20:49.477Z,71200.00
2018-05-27T12:21:49.533Z,76768.00
2018-05-27T12:22:49.589Z,74304.00
2018-05-27T12:23:49.644Z,74112.00
2018-05-27T12:24:49.698Z,75104.00
2018-05-27T12:25:49.755Z,76832.00
2018-05-27T12:26:49.809Z,75552.00
2018-05-27T12:27:49.863Z,72064.00